Details From CYQX - Gander Intl
To CYJT - Stephenville
Flight Number -
Tags Generated
Created
Modified
Stats Distance 160 nm / 296 km
Max Altitude 0 ft / 0 m
Waypoints 2
Social Downloads 0
Likes 0
Share VATSIM

Download

Looking for another format? Having issues loading an existing format? Contact us
Advertisement - Login to hide

Notes

Generated

Route

CYQX CYJT

ID Type Via Altitude Latitude Longitude Leg Dist Tot Dist Heading (true) Name
O CYQX APT - 0 ft / 0 m 48.94339˚ -54.56803˚ - 0 nm - GANDER INTL
O CYJT APT - 0 ft / 0 m 48.53389˚ -58.55250˚ 159 nm 159 nm 263° / 260° -

Altitude Profile

Advertisement - Login to hide

CYQX

Details ICAO CYQX (YQX)
Name GANDER INTL
Region Canada
Timezone America/St_Johns (UTC-2.5)
Stats Elevation 496 ft / 151 m (AMSL)
Location 48.942962° -54.565864°
Runways 3
Magnetic Variation 18.722° W

METAR

CYQX 251922Z 15014KT 2SM -SN BR OVC014 01/00 A2981 RMK SN3SC5 SLP102

Decode

TAF

TAF TAF CYQX 251742Z 2518/2618 19012G22KT 6SM -RASN OVC030 TEMPO 2518/2524 21/2SM -SN BR OVC015 PROB30 2522/2524 OVC005 FM260000 16012G22KT 21/2SM -SNRA BR OVC005 FM260400 12012KT 1/2SM -DZ FG VV003 PROB30 2604/2610 1/4SM FG VV001 FM261000 10010KT 6SM BR BKN006 BKN020 FM261400 09008KT P6SM -SHRA BKN020 BECMG 2615/2617 04008KT RMK NXT FCST BY 260000Z

Decode

Departure Runways

ID Width Length Bearing (true) Bearing (mag) Surface Threshold Offset Overrun Length
03 200 ft / 61 m 10,230 ft / 3,118 m 10.93° 29.65° Asphalt 0 ft / 0 m 200 ft / 61 m
09 50 ft / 15 m 1,874 ft / 571 m 62.63° 81.35° Asphalt 0 ft / 0 m 75 ft / 23 m
13 200 ft / 61 m 8,855 ft / 2,699 m 107.30° 126.02° Asphalt 0 ft / 0 m 200 ft / 61 m
21 200 ft / 61 m 10,230 ft / 3,118 m 190.94° 209.66° Asphalt 0 ft / 0 m 199 ft / 61 m
27 50 ft / 15 m 1,874 ft / 571 m 242.64° 261.36° Asphalt 0 ft / 0 m 250 ft / 76 m
31 200 ft / 61 m 8,855 ft / 2,699 m 287.33° 306.05° Asphalt 0 ft / 0 m 201 ft / 61 m

CYJT

Details ICAO CYJT (YJT)
Name STEPHENVILLE
Region Canada
Timezone America/St_Johns (UTC-2.5)
Stats Elevation 80 ft / 24 m (AMSL)
Location 48.541811° -58.551488°
Runways 2
Magnetic Variation 18.845° W

METAR

CYJT 251900Z 09012KT 15SM OVC025 OVC090 05/03 A2961 RMK SC8AS1 AS TR SLP029

Decode

TAF

TAF AMD CYJT 251818Z 2518/2618 09012G22KT P6SM OVC025 TEMPO 2518/2521 3SM -RA BR SCT008 OVC010 FM252200 10008KT P6SM -RA OVC012 FM260400 06008KT 6SM -DZ BR FEW006 OVC010 BECMG 2610/2612 VRB03KT FM261400 25010KT P6SM -SHRA BKN020 RMK NXT FCST BY 260000Z

Decode

Destination Runways

ID Width Length Bearing (true) Bearing (mag) Surface Threshold Offset Overrun Length
02 150 ft / 46 m 3,770 ft / 1,149 m 355.50° 14.35° Asphalt 0 ft / 0 m 0 ft / 0 m
09 200 ft / 61 m 9,970 ft / 3,039 m 71.61° 90.46° Asphalt 0 ft / 0 m 1,000 ft / 305 m
20 150 ft / 46 m 3,770 ft / 1,149 m 175.50° 194.35° Asphalt 0 ft / 0 m 0 ft / 0 m
27 200 ft / 61 m 9,970 ft / 3,039 m 251.64° 270.49° Asphalt 0 ft / 0 m 1,000 ft / 305 m

Popular Alternatives